Flight Track Log - Related Links

Times and Time Zones

All times are in EDT time to prevent confusion due to time zone crossing. See the FDX130 flight status page for this flight to view local times or setup timezone preferences in your user account.

Time Position Orientation Groundspeed Altitude Reporting Facility
EDT Latitude Longitude Course Direction KTS MPH feet Rate Location/Type
Sat 05:17:16 AM 35.0167 -89.9667 180° South 173 199 1,200  Level KMEM
Sat 05:17:46 AM 34.9833 -89.9667 180° South 182 209 1,900 1,467 Climbing KMEM
Sat 05:18:46 AM 34.9333 -89.9333 151° Southeast 258 297 3,400 2,048 Climbing KMEM
Sat 05:19:52 AM 34.9333 -89.8333 90° East 282 325 6,200 2,619 Climbing KMEM
Sat 05:20:52 AM 34.9667 -89.7500 64° Northeast 280 322 8,900 2,060 Climbing KMEM
Sat 05:22:06 AM 35.0639 -89.6925 26° Northeast 340 391 10,800 1,522 Climbing Memphis Center
Sat 05:23:06 AM 35.1492 -89.6283 32° Northeast 356 410 12,300 1,850 Climbing Memphis Center
Sat 05:24:06 AM 35.2364 -89.5589 33° Northeast 366 421 14,500 2,050 Climbing Memphis Center
Sat 05:25:06 AM 35.3297 -89.4867 32° Northeast 377 434 16,400 1,800 Climbing Memphis Center
Sat 05:26:06 AM 35.4231 -89.4067 35° Northeast 393 452 18,100 1,700 Climbing Memphis Center
Sat 05:27:06 AM 35.5014 -89.3011 48° Northeast 400 460 19,800 1,500 Climbing Memphis Center
Sat 05:28:06 AM 35.5817 -89.1981 46° Northeast 416 479 21,100 1,300 Climbing Memphis Center
Sat 05:29:06 AM 35.6683 -89.0894 45° Northeast 424 488 22,400 1,200 Climbing Memphis Center
Sat 05:30:06 AM 35.7403 -88.9886 49° Northeast 424 488 23,500 1,091 Climbing Memphis Center
Sat 05:35:09 AM 36.2090 -88.3820 49° Northeast 488 562 29,000 1,062 Climbing FlightAware ADS-B
Sat 05:35:45 AM 36.2790 -88.3220 35° Northeast 491 565 29,500 750 Climbing FlightAware ADS-B
Sat 05:36:21 AM 36.3480 -88.2740 29° Northeast 497 572 29,900 632 Climbing FlightAware ADS-B
Sat 05:37:01 AM 36.4300 -88.2150 30° Northeast 503 579 30,300 583 Climbing FlightAware ADS-B
Sat 05:37:33 AM 36.4950 -88.1690 30° Northeast 508 585 30,600 618 Climbing FlightAware ADS-B
Sat 05:38:09 AM 36.5710 -88.1170 29° Northeast 512 589 31,000 750 Climbing FlightAware ADS-B
Sat 05:38:45 AM 36.6470 -88.0660 28° Northeast 515 593 31,500 706 Climbing FlightAware ADS-B
Sat 05:39:17 AM 36.7120 -88.0210 29° Northeast 517 595 31,800 609 Climbing FlightAware ADS-B
Sat 05:39:54 AM 36.7900 -87.9690 28° Northeast 519 597 32,200 640 Climbing FlightAware ADS-B
Sat 05:40:32 AM 36.8670 -87.9170 28° Northeast 519 597 32,600 771 Climbing FlightAware ADS-B
Sat 05:41:04 AM 36.9360 -87.8710 28° Northeast 518 596 33,100 882 Climbing FlightAware ADS-B
Sat 05:41:40 AM 37.0150 -87.8190 28° Northeast 517 595 33,600 750 Climbing FlightAware ADS-B
Sat 05:42:16 AM 37.0930 -87.7690 27° Northeast 519 597 34,000 667 Climbing FlightAware ADS-B
Sat 05:42:52 AM 37.1690 -87.7190 28° Northeast 521 600 34,400 686 Climbing FlightAware ADS-B
Sat 05:43:26 AM 37.2420 -87.6710 28° Northeast 522 601 34,800 514 Climbing FlightAware ADS-B
Sat 05:44:02 AM 37.3200 -87.6200 27° Northeast 523 602 35,000 176 Climbing FlightAware ADS-B
Sat 05:44:34 AM 37.3830 -87.5650 35° Northeast 522 601 35,000  Level FlightAware ADS-B
Sat 05:45:10 AM 37.4410 -87.4850 48° Northeast 518 596 35,000  Level FlightAware ADS-B
Sat 05:45:46 AM 37.4970 -87.4020 50° Northeast 519 597 35,000  Level FlightAware ADS-B
Sat 05:46:22 AM 37.5530 -87.3200 49° Northeast 517 595 35,000  Level FlightAware ADS-B
Sat 05:46:54 AM 37.6040 -87.2460 49° Northeast 518 596 35,000  Level FlightAware ADS-B
Sat 05:47:28 AM 37.6560 -87.1670 50° Northeast 519 597 35,000  Level FlightAware ADS-B
Sat 05:48:06 AM 37.7150 -87.0800 49° Northeast 519 597 35,000  Level FlightAware ADS-B
Sat 05:48:38 AM 37.7640 -87.0050 50° Northeast 519 597 35,000  Level FlightAware ADS-B
Sat 05:49:14 AM 37.8190 -86.9240 49° Northeast 520 598 35,000  Level FlightAware ADS-B
Sat 05:49:50 AM 37.8760 -86.8380 50° Northeast 521 600 35,000  Level FlightAware ADS-B
Sat 05:50:30 AM 37.9390 -86.7450 49° Northeast 523 602 35,000  Level FlightAware ADS-B
Sat 05:51:06 AM 37.9960 -86.6580 50° Northeast 524 603 35,000  Level FlightAware ADS-B
Sat 05:51:42 AM 38.0520 -86.5750 49° Northeast 525 604 35,000  Level FlightAware ADS-B
Sat 05:52:14 AM 38.1020 -86.4970 51° Northeast 529 609 35,000  Level FlightAware ADS-B
Sat 05:52:50 AM 38.1590 -86.4130 49° Northeast 531 611 35,000  Level FlightAware ADS-B
Sat 05:53:26 AM 38.2160 -86.3270 50° Northeast 535 616 35,000  Level FlightAware ADS-B
Sat 05:54:01 AM 38.2690 -86.2440 51° Northeast 536 617 35,000  Level FlightAware ADS-B
Sat 05:54:38 AM 38.3270 -86.1540 51° Northeast 536 617 35,000  Level FlightAware ADS-B
Sat 05:55:08 AM 38.3780 -86.0770 50° Northeast 534 615 35,000  Level FlightAware ADS-B
Sat 05:55:46 AM 38.4380 -85.9840 51° Northeast 533 613 35,000  Level FlightAware ADS-B
Sat 05:56:22 AM 38.4930 -85.8990 50° Northeast 533 613 35,000  Level FlightAware ADS-B
Sat 05:56:58 AM 38.5510 -85.8100 50° Northeast 532 612 35,000  Level FlightAware ADS-B
Sat 05:57:30 AM 38.6000 -85.7340 50° Northeast 533 613 35,000  Level FlightAware ADS-B
Sat 05:58:08 AM 38.6600 -85.6420 50° Northeast 535 616 35,000  Level FlightAware ADS-B
Sat 05:58:38 AM 38.7070 -85.5680 51° Northeast 536 617 35,000  Level FlightAware ADS-B
Sat 05:59:18 AM 38.7710 -85.4670 51° Northeast 536 617 35,000  Level FlightAware ADS-B
Sat 05:59:53 AM 38.8250 -85.3840 50° Northeast 537 618 35,000  Level FlightAware ADS-B
Sat 06:00:26 AM 38.8760 -85.3020 51° Northeast 538 619 35,000  Level FlightAware ADS-B
Sat 06:01:02 AM 38.9330 -85.2130 51° Northeast 538 619 35,000  Level FlightAware ADS-B
Sat 06:01:34 AM 38.9820 -85.1360 51° Northeast 539 620 35,000 88 Level FlightAware ADS-B
Sat 06:02:10 AM 39.0420 -85.0410 51° Northeast 536 617 35,100  Climbing FlightAware ADS-B
Sat 06:02:46 AM 39.0960 -84.9550 51° Northeast 532 612 35,000 -91 Descending FlightAware ADS-B
Sat 06:03:16 AM 39.1410 -84.8830 51° Northeast 530 610 35,000  Level FlightAware ADS-B
Sat 06:03:58 AM 39.2080 -84.7760 51° Northeast 531 611 35,000  Level FlightAware ADS-B
Sat 06:04:30 AM 39.2560 -84.6990 51° Northeast 533 613 35,000  Level FlightAware ADS-B
Sat 06:05:08 AM 39.3130 -84.6070 51° Northeast 531 611 35,000  Level FlightAware ADS-B
Sat 06:05:42 AM 39.3670 -84.5200 51° Northeast 535 616 35,000  Level FlightAware ADS-B
Sat 06:06:16 AM 39.4180 -84.4400 50° Northeast 534 615 35,000  Level FlightAware ADS-B
Sat 06:06:52 AM 39.4770 -84.3430 52° Northeast 533 613 35,000  Level FlightAware ADS-B
Sat 06:07:28 AM 39.5310 -84.2560 51° Northeast 535 616 35,000  Level FlightAware ADS-B
Sat 06:08:00 AM 39.5810 -84.1730 52° Northeast 538 619 35,000  Level FlightAware ADS-B
Sat 06:08:36 AM 39.6360 -84.0840 51° Northeast 538 619 35,000  Level FlightAware ADS-B
Sat 06:09:10 AM 39.6890 -83.9980 51° Northeast 538 619 35,000  Level FlightAware ADS-B
Sat 06:09:44 AM 39.7410 -83.9120 52° Northeast 538 619 35,000  Level FlightAware ADS-B
Sat 06:10:22 AM 39.8010 -83.8150 51° Northeast 539 620 35,000  Level FlightAware ADS-B
Sat 06:10:58 AM 39.8560 -83.7230 52° Northeast 540 621 35,000 83 Level FlightAware ADS-B
Sat 06:11:34 AM 39.9110 -83.6320 52° Northeast 541 623 35,100  Climbing FlightAware ADS-B
Sat 06:12:04 AM 39.9590 -83.5520 52° Northeast 541 623 35,000 -88 Descending FlightAware ADS-B
Sat 06:12:42 AM 40.0170 -83.4540 52° Northeast 540 621 35,000 81 Level FlightAware ADS-B
Sat 06:13:18 AM 40.0710 -83.3640 52° Northeast 540 621 35,100  Climbing FlightAware ADS-B
Sat 06:13:50 AM 40.1210 -83.2820 51° Northeast 539 620 35,000 -86 Descending FlightAware ADS-B
Sat 06:14:28 AM 40.1790 -83.1840 52° Northeast 538 619 35,000  Level FlightAware ADS-B
Sat 06:15:00 AM 40.2280 -83.1020 52° Northeast 538 619 35,000  Level FlightAware ADS-B
Sat 06:15:35 AM 40.2810 -83.0120 52° Northeast 537 618 35,000  Level FlightAware ADS-B
Sat 06:16:10 AM 40.3350 -82.9190 53° Northeast 537 618 35,000  Level FlightAware ADS-B
Sat 06:16:48 AM 40.3920 -82.8240 52° Northeast 536 617 35,000  Level FlightAware ADS-B
Sat 06:17:20 AM 40.4400 -82.7420 52° Northeast 536 617 35,000  Level FlightAware ADS-B
Sat 06:17:56 AM 40.4950 -82.6480 52° Northeast 540 621 35,000  Level FlightAware ADS-B
Sat 06:18:30 AM 40.5470 -82.5600 52° Northeast 540 621 35,000  Level FlightAware ADS-B
Sat 06:19:06 AM 40.6020 -82.4630 53° Northeast 539 620 35,000  Level FlightAware ADS-B
Sat 06:19:42 AM 40.6560 -82.3720 52° Northeast 536 617 35,000  Level FlightAware ADS-B
Sat 06:20:14 AM 40.7030 -82.2900 53° Northeast 534 615 35,000  Level FlightAware ADS-B
Sat 06:20:59 AM 40.7680 -82.1780 53° Northeast 536 617 35,000  Level FlightAware ADS-B
Sat 06:21:36 AM 40.8260 -82.0760 53° Northeast 537 618 35,000  Level FlightAware ADS-B
Sat 06:22:08 AM 40.8740 -81.9920 53° Northeast 537 618 35,000  Level FlightAware ADS-B
Sat 06:22:44 AM 40.9270 -81.9010 52° Northeast 537 618 35,000  Level FlightAware ADS-B
Sat 06:23:20 AM 40.9820 -81.8030 53° Northeast 538 619 35,000  Level FlightAware ADS-B
Sat 06:23:52 AM 41.0300 -81.7190 53° Northeast 538 619 35,000  Level FlightAware ADS-B
Sat 06:24:30 AM 41.0860 -81.6190 53° Northeast 538 619 35,000 81 Level FlightAware ADS-B
Sat 06:25:06 AM 41.1400 -81.5240 53° Northeast 533 613 35,100  Climbing FlightAware ADS-B
Sat 06:25:37 AM 41.1870 -81.4400 53° Northeast 532 612 35,000 -88 Descending FlightAware ADS-B
Sat 06:26:14 AM 41.2400 -81.3460 53° Northeast 532 612 35,000  Level FlightAware ADS-B
Sat 06:26:51 AM 41.2950 -81.2490 53° Northeast 531 611 35,000  Level FlightAware ADS-B
Sat 06:27:23 AM 41.3420 -81.1620 54° Northeast 533 613 35,000  Level FlightAware ADS-B
Sat 06:27:59 AM 41.3950 -81.0670 53° Northeast 535 616 35,000  Level FlightAware ADS-B
Sat 06:28:35 AM 41.4480 -80.9710 54° Northeast 537 618 35,000  Level FlightAware ADS-B
Sat 06:29:06 AM 41.4930 -80.8910 53° Northeast 538 619 35,000  Level FlightAware ADS-B
Sat 06:29:43 AM 41.5480 -80.7890 54° Northeast 537 618 35,000  Level FlightAware ADS-B
Sat 06:30:18 AM 41.5980 -80.6990 53° Northeast 538 619 35,000  Level FlightAware ADS-B
Sat 06:30:54 AM 41.6510 -80.6020 54° Northeast 537 618 35,000  Level FlightAware ADS-B
Sat 06:31:27 AM 41.7000 -80.5130 54° Northeast 538 619 35,000  Level FlightAware ADS-B
Sat 06:32:03 AM 41.7540 -80.4140 54° Northeast 539 620 35,000  Level FlightAware ADS-B
Sat 06:32:37 AM 41.8030 -80.3220 54° Northeast 539 620 35,000  Level FlightAware ADS-B
Sat 06:33:16 AM 41.8590 -80.2190 54° Northeast 538 619 35,000  Level FlightAware ADS-B
Sat 06:33:47 AM 41.9060 -80.1320 54° Northeast 538 619 35,000  Level FlightAware ADS-B
Sat 06:34:24 AM 41.9590 -80.0350 54° Northeast 539 620 35,000  Level FlightAware ADS-B
Sat 06:35:00 AM 42.0100 -79.9370 55° Northeast 540 621 35,000  Level FlightAware ADS-B
Sat 06:35:36 AM 42.0630 -79.8380 54° Northeast 540 621 35,000  Level FlightAware ADS-B
Sat 06:36:13 AM 42.1150 -79.7430 54° Northeast 540 621 35,000  Level FlightAware ADS-B
Sat 06:36:51 AM 42.1700 -79.6360 55° Northeast 540 621 35,000  Level FlightAware ADS-B
Sat 06:37:26 AM 42.2190 -79.5460 54° Northeast 540 621 35,000  Level FlightAware ADS-B
Sat 06:37:59 AM 42.2710 -79.4470 55° Northeast 540 621 35,000  Level FlightAware ADS-B
Sat 06:38:37 AM 42.3260 -79.3420 55° Northeast 541 623 35,000  Level FlightAware ADS-B
Sat 06:39:09 AM 42.3720 -79.2540 55° Northeast 541 623 35,000  Level FlightAware ADS-B
Sat 06:39:46 AM 42.4270 -79.1490 55° Northeast 541 623 35,000  Level FlightAware ADS-B
Sat 06:40:18 AM 42.4720 -79.0630 55° Northeast 542 624 35,000  Level FlightAware ADS-B
Sat 06:40:58 AM 42.5300 -78.9520 55° Northeast 541 623 35,000  Level FlightAware ADS-B
Sat 06:41:30 AM 42.5750 -78.8630 56° Northeast 541 623 35,000  Level FlightAware ADS-B
Sat 06:42:06 AM 42.6260 -78.7630 55° Northeast 541 623 35,000  Level FlightAware ADS-B
Sat 06:42:42 AM 42.6790 -78.6630 54° Northeast 540 621 35,000  Level FlightAware ADS-B
Sat 06:43:18 AM 42.7290 -78.5630 56° Northeast 537 618 35,000  Level FlightAware ADS-B
Sat 06:43:50 AM 42.7740 -78.4740 55° Northeast 533 613 35,000  Level FlightAware ADS-B
Sat 06:44:25 AM 42.8230 -78.3780 55° Northeast 532 612 35,000  Level FlightAware ADS-B
Sat 06:45:02 AM 42.8750 -78.2760 55° Northeast 533 613 35,000  Level FlightAware ADS-B
Sat 06:45:34 AM 42.9200 -78.1870 55° Northeast 532 612 35,000  Level FlightAware ADS-B
Sat 06:46:10 AM 42.9690 -78.0880 56° Northeast 534 615 35,000  Level FlightAware ADS-B
Sat 06:46:46 AM 43.0210 -77.9840 56° Northeast 537 618 35,000  Level FlightAware ADS-B
Sat 06:47:22 AM 43.0710 -77.8860 55° Northeast 536 617 35,000  Level FlightAware ADS-B
Sat 06:47:54 AM 43.1160 -77.7970 55° Northeast 535 616 35,000  Level FlightAware ADS-B
Sat 06:48:27 AM 43.1600 -77.7080 56° Northeast 534 615 35,000  Level FlightAware ADS-B
Sat 06:49:04 AM 43.2120 -77.6010 56° Northeast 535 616 35,000  Level FlightAware ADS-B
Sat 06:49:40 AM 43.2620 -77.5000 56° Northeast 535 616 35,000  Level FlightAware ADS-B
Sat 06:50:16 AM 43.3130 -77.3980 55° Northeast 535 616 35,000  Level FlightAware ADS-B
Sat 06:50:50 AM 43.3600 -77.3030 56° Northeast 534 615 35,000  Level FlightAware ADS-B
Sat 06:51:26 AM 43.4090 -77.2010 57° Northeast 534 615 35,000 86 Level FlightAware ADS-B
Sat 06:52:00 AM 43.4560 -77.1060 56° Northeast 532 612 35,100 87 Climbing FlightAware ADS-B
Sat 06:52:35 AM 43.5020 -77.0100 57° Northeast 530 610 35,100 -85 Level FlightAware ADS-B
Sat 06:53:11 AM 43.5520 -76.9060 56° Northeast 526 605 35,000 -83 Descending FlightAware ADS-B
Sat 06:53:47 AM 43.6000 -76.8090 56° Northeast 525 604 35,000  Level FlightAware ADS-B
Sat 06:54:19 AM 43.6430 -76.7170 57° Northeast 523 602 35,000  Level FlightAware ADS-B
Sat 06:54:55 AM 43.6900 -76.6170 57° Northeast 521 600 35,000  Level FlightAware ADS-B
Sat 06:55:33 AM 43.7420 -76.5110 56° Northeast 523 602 35,000  Level FlightAware ADS-B
Sat 06:56:05 AM 43.7850 -76.4190 57° Northeast 526 605 35,000  Level FlightAware ADS-B
Sat 06:56:41 AM 43.8330 -76.3200 56° Northeast 528 608 35,000 -250 Level FlightAware ADS-B
Sat 06:57:17 AM 43.8810 -76.2180 57° Northeast 524 603 34,700 -529 Descending FlightAware ADS-B
Sat 06:57:49 AM 43.9230 -76.1320 56° Northeast 493 567 34,400 -706 Descending FlightAware ADS-B
Sat 06:58:25 AM 43.9780 -76.0500 47° Northeast 477 549 33,900 -833 Descending FlightAware ADS-B
Sat 06:59:01 AM 44.0410 -75.9870 36° Northeast 469 540 33,400 -833 Descending FlightAware ADS-B
Sat 06:59:37 AM 44.1070 -75.9280 33° Northeast 471 542 32,900 -1,091 Descending FlightAware ADS-B
Sat 07:00:07 AM 44.1590 -75.8820 32° Northeast 468 539 32,200 -2,118 Descending FlightAware ADS-B
Sat 07:00:45 AM 44.2320 -75.8180 32° Northeast 464 534 30,500 -2,451 Descending FlightAware ADS-B
Sat 07:01:18 AM 44.2890 -75.7660 33° Northeast 460 529 29,300 -1,846 Descending FlightAware ADS-B
Sat 07:02:03 AM 44.3690 -75.6950 32° Northeast 445 512 28,100 -1,350 Descending FlightAware ADS-B
Sat 07:02:38 AM 44.4300 -75.6400 33° Northeast 443 510 27,500 -1,040 Descending FlightAware ADS-B
Sat 07:03:18 AM 44.5010 -75.5770 32° Northeast 440 506 26,800 -1,040 Descending FlightAware ADS-B
Sat 07:03:53 AM 44.5610 -75.5220 33° Northeast 439 505 26,200 -943 Descending FlightAware ADS-B
Sat 07:04:28 AM 44.6220 -75.4670 33° Northeast 428 493 25,700 -943 Descending FlightAware ADS-B
Sat 07:05:03 AM 44.6800 -75.4150 33° Northeast 424 488 25,100 -1,029 Descending FlightAware ADS-B
Sat 07:05:38 AM 44.7340 -75.3540 39° Northeast 431 496 24,500 -1,029 Descending FlightAware ADS-B
Sat 07:06:13 AM 44.7790 -75.2800 49° Northeast 432 497 23,900 -1,014 Descending FlightAware ADS-B
Sat 07:06:49 AM 44.8240 -75.2040 50° Northeast 422 486 23,300 -1,029 Descending FlightAware ADS-B
Sat 07:07:23 AM 44.8670 -75.1290 51° Northeast 419 482 22,700 -1,478 Descending FlightAware ADS-B
Sat 07:07:58 AM 44.9100 -75.0540 51° Northeast 415 478 21,600 -1,886 Descending FlightAware ADS-B
Sat 07:08:33 AM 44.9520 -74.9810 51° Northeast 410 472 20,500 -1,800 Descending FlightAware ADS-B
Sat 07:09:08 AM 44.9900 -74.9080 54° Northeast 402 463 19,500 -1,800 Descending FlightAware ADS-B
Sat 07:09:43 AM 45.0250 -74.8290 58° Northeast 395 455 18,400 -1,667 Descending FlightAware ADS-B
Sat 07:10:20 AM 45.0590 -74.7500 59° Northeast 385 443 17,500 -1,629 Descending FlightAware ADS-B
Sat 07:10:53 AM 45.0910 -74.6790 57° Northeast 376 433 16,500 -2,451 Descending FlightAware ADS-B
Sat 07:11:31 AM 45.1350 -74.6010 51° Northeast 376 433 14,600 -3,583 Descending FlightAware ADS-B
Sat 07:12:05 AM 45.1820 -74.5550 35° Northeast 371 427 12,200 -3,441 Descending FlightAware ADS-B
Sat 07:12:39 AM 45.2290 -74.5090 35° Northeast 339 390 10,700 -2,226 Descending FlightAware ADS-B
Sat 07:13:07 AM 45.2630 -74.4760 34° Northeast 310 357 9,900 -1,375 Descending FlightAware ADS-B
Sat 07:13:27 AM 45.2860 -74.4540 34° Northeast 283 326 9,600 -1,773 Descending FlightAware ADS-B
Sat 07:13:51 AM 45.3120 -74.4280 35° Northeast 278 320 8,600 -2,250 Descending FlightAware ADS-B
Sat 07:14:07 AM 45.3270 -74.4130 35° Northeast 272 313 8,100 -2,093 Descending FlightAware ADS-B
Sat 07:14:34 AM 45.3550 -74.3840 36° Northeast 264 304 7,100 -2,267 Descending FlightAware ADS-B
Sat 07:14:52 AM 45.3740 -74.3660 34° Northeast 260 299 6,400 -2,368 Descending FlightAware ADS-B
Sat 07:15:12 AM 45.3930 -74.3470 35° Northeast 258 297 5,600 -2,211 Descending FlightAware ADS-B
Sat 07:15:30 AM 45.4110 -74.3300 34° Northeast 256 295 5,000 -1,909 Descending FlightAware ADS-B
Sat 07:15:56 AM 45.4360 -74.3050 35° Northeast 252 290 4,200 -1,696 Descending FlightAware ADS-B
Sat 07:16:16 AM 45.4550 -74.2870 34° Northeast 240 276 3,700 -1,050 Descending FlightAware ADS-B
Sat 07:16:36 AM 45.4740 -74.2730 27° Northeast 222 255 3,500 -818 Descending FlightAware ADS-B
Sat 07:17:00 AM 45.4960 -74.2580 26° Northeast 220 253 3,100 -1,000 Descending FlightAware ADS-B
Sat 07:17:24 AM 45.5160 -74.2410 31° Northeast 220 253 2,700 -429 Descending FlightAware ADS-B
Sat 07:17:56 AM 45.5400 -74.2070 45° Northeast 219 252 2,700 -125 Level FlightAware ADS-B
Sat 07:18:12 AM 45.5510 -74.1920 44° Northeast 218 251 2,600 -150 Descending FlightAware ADS-B
Sat 07:18:36 AM 45.5660 -74.1700 46° Northeast 206 237 2,600 -143 Level FlightAware ADS-B
Sat 07:18:54 AM 45.5780 -74.1530 45° Northeast 192 221 2,500 -529 Descending FlightAware ADS-B
Sat 07:19:10 AM 45.5880 -74.1390 44° Northeast 187 215 2,300 -1,105 Descending FlightAware ADS-B
Sat 07:19:32 AM 45.6020 -74.1190 45° Northeast 185 213 1,800 -1,080 Descending FlightAware ADS-B
Sat 07:20:00 AM 45.6180 -74.0970 44° Northeast 171 197 1,400 -882 Descending FlightAware ADS-B
Sat 07:20:06 AM 45.6210 -74.0920 49° Northeast 165 190 1,300 -1,000 Descending FlightAware ADS-B
Sat 07:20:12 AM 45.6250 -74.0860 46° Northeast 161 185 1,200 -774 Descending FlightAware ADS-B
Sat 07:20:37 AM 45.6360 -74.0710 44° Northeast 144 166 900 -698 Descending FlightAware ADS-B
Sat 07:20:55 AM 45.6450 -74.0580 45° Northeast 141 162 700 -750 Descending FlightAware ADS-B
Sat 07:21:25 AM 45.6590 -74.0380 45° Northeast 136 157 300 -667 Descending FlightAware ADS-B
Sat 07:21:31 AM 45.6600 -74.0370 35° Northeast 135 155 300 -500 Level FlightAware ADS-B
Sat 07:21:37 AM 45.6630 -74.0320 49° Northeast 134 154 200 -194 Descending FlightAware ADS-B
Sat 07:22:02 AM 45.6720 -74.0180 47° Northeast 134 154 200 91 Level FlightAware ADS-B
Sat 07:22:43 AM 45.6833 -74.0000 47° Northeast 40 46 300 59 Climbing Montreal Center
Sat 07:23:43 AM 45.6833 -74.0000 47° Northeast 20 23 300  Level Montreal Center
Sat 07:25:43 AM 45.6833 -74.0000 360° North 20 23 300  Level Montreal Center
Sat 07:27:43 AM 45.6833 -74.0000 360° North 320 368 300  Level Montreal Center
Sat 07:28:43 AM 45.6833 -74.0000 360° North 20 23 300  Level Montreal Center
Sat 07:29:43 AM 45.6667 -74.0333 234° Southwest 10 12 300  Level Montreal Center
Sat 07:30:43 AM 45.6667 -74.0333 234° Southwest 20 23 300  Level Montreal Center

Login

Don't have an account? Register now (free) for customized features, flight alerts, and more!